Hlavní strana
METAR-TAF:

METAR-TAF

Letiště :

Paraguaná, Venezuela

zeměpisná šířka: 11-47N, zeměpisná délka: 070-09W, výška: 23 m

METAR: chybějící

Čas: 07:29 (11:29 UTC)

Předpověď počasí

Zpráva byla vytvořena před 7 hodinami a 29 minutami, v 04:00 UTC
Předpověď platná od 24 v 06 UTC do 25 v 06 UTC
Východní vítr 4 kt
Viditelnost 10 km a více
Skoro jasno ve výšce 1600 ft
Změna
od 24 v 06 UTC do 24 v 10 UTC
Východní vítr 3 kt
Viditelnost 10 km a více
Žádná oblačnost pod 1500 m, nevyskytují se cumulonimby.
Od 24 v 1100 UTC
Východní vítr 4 kt
Viditelnost 10 km a více
Skoro jasno ve výšce 1300 ft

TAF: SVJC 240400Z 2406/2506 09004KT 9999 FEW016 TX33/19Z TN22/08Z BECMG 2406/2410 08003KT CAVOK FM241100 09004KT 9999 FEW013

Stav a předpovědi počasí z více než 4 000 letišť (zprávy METAR a TAF).

Červené a žluté tečky na mapě představují dostupné meteorologické stanice.

Když kurzor umístíte na tečku, zobrazí se název stanice.

Pak kliknutím zobrazíte stav a předpověď počasí.

Chcete-li změnit mapu, kliknutím na zelené tlačítko se znaménkem +mapu přiblížíte, kliknutím na zelené tlačítko se znaménkem – mapu oddálíte a kliknutím na zelené šipky přejdete na sousední mapy.


METAR-TAF: